sensor_id;sensor_type;location;lat;lon;timestamp;temperature;humidity
25342;DHT22;13298;48.792;9.154;2022-08-21T00:02:24;17.30;94.00
25342;DHT22;13298;48.792;9.154;2022-08-21T00:04:52;17.30;94.20
25342;DHT22;13298;48.792;9.154;2022-08-21T00:07:19;17.30;94.50
25342;DHT22;13298;48.792;9.154;2022-08-21T00:09:45;17.20;94.70
25342;DHT22;13298;48.792;9.154;2022-08-21T00:12:11;17.10;94.70
25342;DHT22;13298;48.792;9.154;2022-08-21T00:14:37;17.10;94.90
25342;DHT22;13298;48.792;9.154;2022-08-21T00:17:03;17.10;94.70
25342;DHT22;13298;48.792;9.154;2022-08-21T00:19:30;17.10;94.80
25342;DHT22;13298;48.792;9.154;2022-08-21T00:21:56;17.00;95.10
25342;DHT22;13298;48.792;9.154;2022-08-21T00:24:22;17.00;95.30
25342;DHT22;13298;48.792;9.154;2022-08-21T00:26:48;16.90;95.40
25342;DHT22;13298;48.792;9.154;2022-08-21T00:29:14;16.90;95.70
25342;DHT22;13298;48.792;9.154;2022-08-21T00:31:43;16.80;95.80
25342;DHT22;13298;48.792;9.154;2022-08-21T00:34:09;16.80;95.90
25342;DHT22;13298;48.792;9.154;2022-08-21T00:36:36;16.80;96.00
25342;DHT22;13298;48.792;9.154;2022-08-21T00:39:04;16.70;96.40
25342;DHT22;13298;48.792;9.154;2022-08-21T00:41:32;16.60;96.40
25342;DHT22;13298;48.792;9.154;2022-08-21T00:43:59;16.60;96.50
25342;DHT22;13298;48.792;9.154;2022-08-21T00:46:25;16.50;96.70
25342;DHT22;13298;48.792;9.154;2022-08-21T00:48:51;16.50;97.00
25342;DHT22;13298;48.792;9.154;2022-08-21T00:51:20;16.50;96.90
25342;DHT22;13298;48.792;9.154;2022-08-21T00:53:54;16.50;97.10
25342;DHT22;13298;48.792;9.154;2022-08-21T00:56:23;16.40;97.20
25342;DHT22;13298;48.792;9.154;2022-08-21T00:58:50;16.40;97.30
25342;DHT22;13298;48.792;9.154;2022-08-21T01:01:17;16.30;97.40
25342;DHT22;13298;48.792;9.154;2022-08-21T01:03:43;16.30;97.60
25342;DHT22;13298;48.792;9.154;2022-08-21T01:06:09;16.30;97.80
25342;DHT22;13298;48.792;9.154;2022-08-21T01:08:35;16.30;97.70
25342;DHT22;13298;48.792;9.154;2022-08-21T01:11:02;16.20;97.80
25342;DHT22;13298;48.792;9.154;2022-08-21T01:13:30;16.20;98.10
25342;DHT22;13298;48.792;9.154;2022-08-21T01:15:59;16.20;98.20
25342;DHT22;13298;48.792;9.154;2022-08-21T01:18:27;16.10;98.50
25342;DHT22;13298;48.792;9.154;2022-08-21T01:23:27;16.10;98.90
25342;DHT22;13298;48.792;9.154;2022-08-21T01:25:52;16.00;99.00
25342;DHT22;13298;48.792;9.154;2022-08-21T01:28:19;16.00;99.10
25342;DHT22;13298;48.792;9.154;2022-08-21T01:30:46;15.90;99.20
25342;DHT22;13298;48.792;9.154;2022-08-21T01:33:14;15.90;99.40
25342;DHT22;13298;48.792;9.154;2022-08-21T01:35:39;15.90;99.60
25342;DHT22;13298;48.792;9.154;2022-08-21T01:38:05;15.80;99.90
25342;DHT22;13298;48.792;9.154;2022-08-21T01:40:31;15.80;99.90
25342;DHT22;13298;48.792;9.154;2022-08-21T01:42:57;15.70;99.90
25342;DHT22;13298;48.792;9.154;2022-08-21T01:45:22;15.70;99.90
25342;DHT22;13298;48.792;9.154;2022-08-21T01:47:48;15.70;99.90
25342;DHT22;13298;48.792;9.154;2022-08-21T01:50:17;15.60;99.90
25342;DHT22;13298;48.792;9.154;2022-08-21T01:52:45;15.60;99.90
25342;DHT22;13298;48.792;9.154;2022-08-21T01:55:13;15.60;99.90
25342;DHT22;13298;48.792;9.154;2022-08-21T01:57:39;15.60;99.90
25342;DHT22;13298;48.792;9.154;2022-08-21T02:00:08;15.50;99.90
25342;DHT22;13298;48.792;9.154;2022-08-21T02:02:36;15.40;99.90
25342;DHT22;13298;48.792;9.154;2022-08-21T02:05:03;15.40;99.90
25342;DHT22;13298;48.792;9.154;2022-08-21T02:07:37;15.40;99.90
25342;DHT22;13298;48.792;9.154;2022-08-21T02:10:08;15.30;99.90
25342;DHT22;13298;48.792;9.154;2022-08-21T02:12:35;15.30;99.90
25342;DHT22;13298;48.792;9.154;2022-08-21T02:15:03;15.20;99.90
25342;DHT22;13298;48.792;9.154;2022-08-21T02:17:38;15.20;99.90
25342;DHT22;13298;48.792;9.154;2022-08-21T02:20:05;15.10;99.90
25342;DHT22;13298;48.792;9.154;2022-08-21T02:22:31;15.10;99.90
25342;DHT22;13298;48.792;9.154;2022-08-21T02:24:57;15.10;99.90
25342;DHT22;13298;48.792;9.154;2022-08-21T02:27:23;15.10;99.90
25342;DHT22;13298;48.792;9.154;2022-08-21T02:29:49;15.00;99.90
25342;DHT22;13298;48.792;9.154;2022-08-21T02:32:15;15.00;99.90
25342;DHT22;13298;48.792;9.154;2022-08-21T02:34:41;15.00;99.90
25342;DHT22;13298;48.792;9.154;2022-08-21T02:37:06;15.00;99.90
25342;DHT22;13298;48.792;9.154;2022-08-21T02:39:32;15.00;99.90
25342;DHT22;13298;48.792;9.154;2022-08-21T02:41:58;14.90;99.90
25342;DHT22;13298;48.792;9.154;2022-08-21T02:44:23;14.90;99.90
25342;DHT22;13298;48.792;9.154;2022-08-21T02:46:49;14.80;99.90
25342;DHT22;13298;48.792;9.154;2022-08-21T02:49:15;14.80;99.90
25342;DHT22;13298;48.792;9.154;2022-08-21T02:51:40;14.80;99.90
25342;DHT22;13298;48.792;9.154;2022-08-21T02:54:06;14.70;99.90
25342;DHT22;13298;48.792;9.154;2022-08-21T02:56:32;14.70;99.90
25342;DHT22;13298;48.792;9.154;2022-08-21T02:58:57;14.70;99.90
25342;DHT22;13298;48.792;9.154;2022-08-21T03:01:23;14.60;99.90
25342;DHT22;13298;48.792;9.154;2022-08-21T03:03:50;14.60;99.90
25342;DHT22;13298;48.792;9.154;2022-08-21T03:06:16;14.60;99.90
25342;DHT22;13298;48.792;9.154;2022-08-21T03:08:43;14.50;99.90
25342;DHT22;13298;48.792;9.154;2022-08-21T03:11:11;14.50;99.90
25342;DHT22;13298;48.792;9.154;2022-08-21T03:13:37;14.50;99.90
25342;DHT22;13298;48.792;9.154;2022-08-21T03:16:04;14.40;99.90
25342;DHT22;13298;48.792;9.154;2022-08-21T03:18:30;14.40;99.90
25342;DHT22;13298;48.792;9.154;2022-08-21T03:20:55;14.40;99.90
25342;DHT22;13298;48.792;9.154;2022-08-21T03:23:21;14.30;99.90
25342;DHT22;13298;48.792;9.154;2022-08-21T03:25:48;14.30;99.90
25342;DHT22;13298;48.792;9.154;2022-08-21T03:28:18;14.30;99.90
25342;DHT22;13298;48.792;9.154;2022-08-21T03:30:49;14.20;99.90
25342;DHT22;13298;48.792;9.154;2022-08-21T03:33:16;14.20;99.90
25342;DHT22;13298;48.792;9.154;2022-08-21T03:35:44;14.20;99.90
25342;DHT22;13298;48.792;9.154;2022-08-21T03:38:12;14.20;99.90
25342;DHT22;13298;48.792;9.154;2022-08-21T03:40:38;14.20;99.90
25342;DHT22;13298;48.792;9.154;2022-08-21T03:43:04;14.20;99.90
25342;DHT22;13298;48.792;9.154;2022-08-21T03:45:30;14.20;99.90
25342;DHT22;13298;48.792;9.154;2022-08-21T03:47:56;14.10;99.90
25342;DHT22;13298;48.792;9.154;2022-08-21T03:50:30;14.10;99.90
25342;DHT22;13298;48.792;9.154;2022-08-21T03:52:58;14.10;99.90
25342;DHT22;13298;48.792;9.154;2022-08-21T03:55:25;14.10;99.90
25342;DHT22;13298;48.792;9.154;2022-08-21T03:57:51;14.20;99.90
25342;DHT22;13298;48.792;9.154;2022-08-21T04:00:18;14.10;99.90
25342;DHT22;13298;48.792;9.154;2022-08-21T04:02:45;14.10;99.90
25342;DHT22;13298;48.792;9.154;2022-08-21T04:05:14;14.10;99.90
25342;DHT22;13298;48.792;9.154;2022-08-21T04:07:53;14.10;99.90
25342;DHT22;13298;48.792;9.154;2022-08-21T04:10:27;14.10;99.90
25342;DHT22;13298;48.792;9.154;2022-08-21T04:12:54;14.00;99.90
25342;DHT22;13298;48.792;9.154;2022-08-21T04:15:21;14.00;99.90
25342;DHT22;13298;48.792;9.154;2022-08-21T04:17:48;13.90;99.90
25342;DHT22;13298;48.792;9.154;2022-08-21T04:20:18;13.90;99.90
25342;DHT22;13298;48.792;9.154;2022-08-21T04:22:44;13.90;99.90
25342;DHT22;13298;48.792;9.154;2022-08-21T04:25:12;13.90;99.90
25342;DHT22;13298;48.792;9.154;2022-08-21T04:27:38;13.90;99.90
25342;DHT22;13298;48.792;9.154;2022-08-21T04:30:07;13.90;99.90
25342;DHT22;13298;48.792;9.154;2022-08-21T04:32:34;13.80;99.90
25342;DHT22;13298;48.792;9.154;2022-08-21T04:35:02;13.90;99.90
25342;DHT22;13298;48.792;9.154;2022-08-21T04:37:30;13.90;99.90
25342;DHT22;13298;48.792;9.154;2022-08-21T04:39:56;13.80;99.90
25342;DHT22;13298;48.792;9.154;2022-08-21T04:42:25;13.80;99.90
25342;DHT22;13298;48.792;9.154;2022-08-21T04:44:51;13.80;99.90
25342;DHT22;13298;48.792;9.154;2022-08-21T04:47:17;13.80;99.90
25342;DHT22;13298;48.792;9.154;2022-08-21T04:49:44;13.90;99.90
25342;DHT22;13298;48.792;9.154;2022-08-21T04:52:11;13.90;99.90
25342;DHT22;13298;48.792;9.154;2022-08-21T04:54:39;13.90;99.90
25342;DHT22;13298;48.792;9.154;2022-08-21T04:57:08;14.00;99.90
25342;DHT22;13298;48.792;9.154;2022-08-21T04:59:46;14.00;99.90
25342;DHT22;13298;48.792;9.154;2022-08-21T05:02:14;14.00;99.90
25342;DHT22;13298;48.792;9.154;2022-08-21T05:04:44;14.10;99.90
25342;DHT22;13298;48.792;9.154;2022-08-21T05:07:15;14.10;99.90
25342;DHT22;13298;48.792;9.154;2022-08-21T05:09:43;14.20;99.90
25342;DHT22;13298;48.792;9.154;2022-08-21T05:12:09;14.20;99.90
25342;DHT22;13298;48.792;9.154;2022-08-21T05:14:36;14.30;99.90
25342;DHT22;13298;48.792;9.154;2022-08-21T05:17:02;14.40;99.90
25342;DHT22;13298;48.792;9.154;2022-08-21T05:19:28;14.40;99.90
25342;DHT22;13298;48.792;9.154;2022-08-21T05:21:54;14.50;99.90
25342;DHT22;13298;48.792;9.154;2022-08-21T05:24:20;14.60;99.90
25342;DHT22;13298;48.792;9.154;2022-08-21T05:26:46;14.60;99.90
25342;DHT22;13298;48.792;9.154;2022-08-21T05:29:13;14.70;99.90
25342;DHT22;13298;48.792;9.154;2022-08-21T05:31:39;14.80;99.90
25342;DHT22;13298;48.792;9.154;2022-08-21T05:34:05;14.80;99.90
25342;DHT22;13298;48.792;9.154;2022-08-21T05:36:31;14.90;99.90
25342;DHT22;13298;48.792;9.154;2022-08-21T05:38:56;15.00;99.90
25342;DHT22;13298;48.792;9.154;2022-08-21T05:41:22;15.10;99.90
25342;DHT22;13298;48.792;9.154;2022-08-21T05:43:48;15.20;99.90
25342;DHT22;13298;48.792;9.154;2022-08-21T05:46:14;15.30;99.90
25342;DHT22;13298;48.792;9.154;2022-08-21T05:48:40;15.40;99.90
25342;DHT22;13298;48.792;9.154;2022-08-21T05:51:08;15.50;99.90
25342;DHT22;13298;48.792;9.154;2022-08-21T05:53:37;15.60;99.90
25342;DHT22;13298;48.792;9.154;2022-08-21T05:56:04;15.70;99.90
25342;DHT22;13298;48.792;9.154;2022-08-21T05:58:31;15.80;99.90
25342;DHT22;13298;48.792;9.154;2022-08-21T06:00:58;15.90;99.90
25342;DHT22;13298;48.792;9.154;2022-08-21T06:03:30;16.00;99.90
25342;DHT22;13298;48.792;9.154;2022-08-21T06:05:59;16.10;99.90
25342;DHT22;13298;48.792;9.154;2022-08-21T06:08:26;16.20;99.90
25342;DHT22;13298;48.792;9.154;2022-08-21T06:10:54;16.30;99.90
25342;DHT22;13298;48.792;9.154;2022-08-21T06:13:22;16.40;99.90
25342;DHT22;13298;48.792;9.154;2022-08-21T06:15:48;16.50;99.90
25342;DHT22;13298;48.792;9.154;2022-08-21T06:18:14;16.60;99.90
25342;DHT22;13298;48.792;9.154;2022-08-21T06:20:41;16.70;99.90
25342;DHT22;13298;48.792;9.154;2022-08-21T06:23:07;16.80;99.90
25342;DHT22;13298;48.792;9.154;2022-08-21T06:25:33;16.90;99.90
25342;DHT22;13298;48.792;9.154;2022-08-21T06:30:32;17.10;99.90
25342;DHT22;13298;48.792;9.154;2022-08-21T06:32:59;17.20;99.90
25342;DHT22;13298;48.792;9.154;2022-08-21T06:35:25;17.30;99.90
25342;DHT22;13298;48.792;9.154;2022-08-21T06:37:51;17.40;99.90
25342;DHT22;13298;48.792;9.154;2022-08-21T06:40:17;17.50;99.90
25342;DHT22;13298;48.792;9.154;2022-08-21T06:42:42;17.50;99.90
25342;DHT22;13298;48.792;9.154;2022-08-21T06:45:09;17.70;99.90
25342;DHT22;13298;48.792;9.154;2022-08-21T06:47:35;17.80;99.90
25342;DHT22;13298;48.792;9.154;2022-08-21T06:50:01;17.90;99.90
25342;DHT22;13298;48.792;9.154;2022-08-21T06:52:27;18.00;99.90
25342;DHT22;13298;48.792;9.154;2022-08-21T06:54:53;18.10;99.90
25342;DHT22;13298;48.792;9.154;2022-08-21T06:57:19;18.20;99.90
25342;DHT22;13298;48.792;9.154;2022-08-21T06:59:44;18.30;99.90
25342;DHT22;13298;48.792;9.154;2022-08-21T07:02:10;18.40;99.90
25342;DHT22;13298;48.792;9.154;2022-08-21T07:04:36;18.50;99.90
25342;DHT22;13298;48.792;9.154;2022-08-21T07:07:01;18.60;99.90
25342;DHT22;13298;48.792;9.154;2022-08-21T07:09:27;18.70;99.90
25342;DHT22;13298;48.792;9.154;2022-08-21T07:11:54;18.90;99.90
25342;DHT22;13298;48.792;9.154;2022-08-21T07:14:20;19.00;99.90
25342;DHT22;13298;48.792;9.154;2022-08-21T07:16:47;19.10;99.90
25342;DHT22;13298;48.792;9.154;2022-08-21T07:19:14;19.20;99.90
25342;DHT22;13298;48.792;9.154;2022-08-21T07:21:40;19.30;99.90
25342;DHT22;13298;48.792;9.154;2022-08-21T07:24:05;19.40;99.90
25342;DHT22;13298;48.792;9.154;2022-08-21T07:26:31;19.50;99.90
25342;DHT22;13298;48.792;9.154;2022-08-21T07:28:57;19.50;99.90
25342;DHT22;13298;48.792;9.154;2022-08-21T07:31:26;19.60;99.90
25342;DHT22;13298;48.792;9.154;2022-08-21T07:33:52;19.60;99.90
25342;DHT22;13298;48.792;9.154;2022-08-21T07:36:18;19.70;99.90
25342;DHT22;13298;48.792;9.154;2022-08-21T07:38:44;19.80;99.90
25342;DHT22;13298;48.792;9.154;2022-08-21T07:41:18;19.90;99.90
25342;DHT22;13298;48.792;9.154;2022-08-21T07:43:45;20.00;99.80
25342;DHT22;13298;48.792;9.154;2022-08-21T07:46:12;20.10;99.30
25342;DHT22;13298;48.792;9.154;2022-08-21T07:48:39;20.10;98.80
25342;DHT22;13298;48.792;9.154;2022-08-21T07:51:07;20.20;98.90
25342;DHT22;13298;48.792;9.154;2022-08-21T07:53:36;20.30;98.90
25342;DHT22;13298;48.792;9.154;2022-08-21T07:56:03;20.40;98.60
25342;DHT22;13298;48.792;9.154;2022-08-21T07:58:31;20.60;98.40
25342;DHT22;13298;48.792;9.154;2022-08-21T08:00:57;20.70;98.00
25342;DHT22;13298;48.792;9.154;2022-08-21T08:03:23;20.70;97.40
25342;DHT22;13298;48.792;9.154;2022-08-21T08:05:49;20.80;97.30
25342;DHT22;13298;48.792;9.154;2022-08-21T08:08:16;20.80;97.20
25342;DHT22;13298;48.792;9.154;2022-08-21T08:10:42;20.90;97.20
25342;DHT22;13298;48.792;9.154;2022-08-21T08:13:08;21.00;97.50
25342;DHT22;13298;48.792;9.154;2022-08-21T08:15:34;21.10;98.30
25342;DHT22;13298;48.792;9.154;2022-08-21T08:17:59;21.20;98.20
25342;DHT22;13298;48.792;9.154;2022-08-21T08:20:26;21.20;98.70
25342;DHT22;13298;48.792;9.154;2022-08-21T08:22:53;21.30;98.50
25342;DHT22;13298;48.792;9.154;2022-08-21T08:25:20;21.40;98.00
25342;DHT22;13298;48.792;9.154;2022-08-21T08:27:46;21.60;97.40
25342;DHT22;13298;48.792;9.154;2022-08-21T08:30:15;21.70;97.40
25342;DHT22;13298;48.792;9.154;2022-08-21T08:32:42;21.70;97.60
25342;DHT22;13298;48.792;9.154;2022-08-21T08:35:08;21.70;96.90
25342;DHT22;13298;48.792;9.154;2022-08-21T08:37:35;21.70;96.60
25342;DHT22;13298;48.792;9.154;2022-08-21T08:40:04;21.80;96.90
25342;DHT22;13298;48.792;9.154;2022-08-21T08:42:34;21.80;96.80
25342;DHT22;13298;48.792;9.154;2022-08-21T08:45:07;21.80;95.60
25342;DHT22;13298;48.792;9.154;2022-08-21T08:47:39;21.80;95.60
25342;DHT22;13298;48.792;9.154;2022-08-21T08:50:19;21.90;96.00
25342;DHT22;13298;48.792;9.154;2022-08-21T08:52:59;22.00;95.40
25342;DHT22;13298;48.792;9.154;2022-08-21T08:55:36;22.10;94.40
25342;DHT22;13298;48.792;9.154;2022-08-21T08:58:04;22.10;93.00
25342;DHT22;13298;48.792;9.154;2022-08-21T09:00:31;22.20;91.80
25342;DHT22;13298;48.792;9.154;2022-08-21T09:02:59;22.20;91.30
25342;DHT22;13298;48.792;9.154;2022-08-21T09:05:43;22.30;91.20
25342;DHT22;13298;48.792;9.154;2022-08-21T09:08:26;22.40;92.10
25342;DHT22;13298;48.792;9.154;2022-08-21T09:11:08;22.50;91.00
25342;DHT22;13298;48.792;9.154;2022-08-21T09:13:58;22.60;90.90
25342;DHT22;13298;48.792;9.154;2022-08-21T09:16:46;22.70;91.60
25342;DHT22;13298;48.792;9.154;2022-08-21T09:19:22;22.80;91.70
25342;DHT22;13298;48.792;9.154;2022-08-21T09:25:21;23.00;89.20
25342;DHT22;13298;48.792;9.154;2022-08-21T09:27:52;23.10;88.10
25342;DHT22;13298;48.792;9.154;2022-08-21T09:30:19;23.10;88.10
25342;DHT22;13298;48.792;9.154;2022-08-21T09:32:53;23.10;88.10
25342;DHT22;13298;48.792;9.154;2022-08-21T09:35:21;23.20;87.80
25342;DHT22;13298;48.792;9.154;2022-08-21T09:37:58;23.30;88.40
25342;DHT22;13298;48.792;9.154;2022-08-21T09:40:42;23.30;85.50
25342;DHT22;13298;48.792;9.154;2022-08-21T09:45:40;23.30;85.20
25342;DHT22;13298;48.792;9.154;2022-08-21T09:48:22;23.30;86.60
25342;DHT22;13298;48.792;9.154;2022-08-21T09:50:51;23.40;87.40
25342;DHT22;13298;48.792;9.154;2022-08-21T09:53:39;23.40;87.30
25342;DHT22;13298;48.792;9.154;2022-08-21T09:59:46;23.50;86.60
25342;DHT22;13298;48.792;9.154;2022-08-21T10:02:28;23.60;86.50
25342;DHT22;13298;48.792;9.154;2022-08-21T10:05:00;23.50;83.80
25342;DHT22;13298;48.792;9.154;2022-08-21T10:07:31;23.50;84.00
25342;DHT22;13298;48.792;9.154;2022-08-21T10:10:06;23.50;84.10
25342;DHT22;13298;48.792;9.154;2022-08-21T10:12:42;23.50;84.00
25342;DHT22;13298;48.792;9.154;2022-08-21T10:15:23;23.60;84.50
25342;DHT22;13298;48.792;9.154;2022-08-21T10:23:34;23.90;83.00
25342;DHT22;13298;48.792;9.154;2022-08-21T10:26:32;24.00;82.00
25342;DHT22;13298;48.792;9.154;2022-08-21T10:32:29;24.00;82.20
25342;DHT22;13298;48.792;9.154;2022-08-21T10:35:25;24.10;81.90
25342;DHT22;13298;48.792;9.154;2022-08-21T10:44:34;24.00;80.20
25342;DHT22;13298;48.792;9.154;2022-08-21T10:47:36;23.90;80.30
25342;DHT22;13298;48.792;9.154;2022-08-21T10:50:12;23.90;80.50
25342;DHT22;13298;48.792;9.154;2022-08-21T10:53:03;24.00;80.50
25342;DHT22;13298;48.792;9.154;2022-08-21T10:55:59;24.10;79.30
25342;DHT22;13298;48.792;9.154;2022-08-21T10:58:34;24.20;79.20
25342;DHT22;13298;48.792;9.154;2022-08-21T11:01:27;24.30;79.80
25342;DHT22;13298;48.792;9.154;2022-08-21T11:04:10;24.30;78.80
25342;DHT22;13298;48.792;9.154;2022-08-21T11:06:44;24.30;77.90
25342;DHT22;13298;48.792;9.154;2022-08-21T11:09:18;24.30;76.50
25342;DHT22;13298;48.792;9.154;2022-08-21T11:12:00;24.20;76.90
25342;DHT22;13298;48.792;9.154;2022-08-21T11:17:36;24.10;76.30
25342;DHT22;13298;48.792;9.154;2022-08-21T11:20:33;24.10;76.30
25342;DHT22;13298;48.792;9.154;2022-08-21T11:23:43;24.10;75.60
25342;DHT22;13298;48.792;9.154;2022-08-21T11:26:20;24.00;75.90
25342;DHT22;13298;48.792;9.154;2022-08-21T11:29:11;24.00;75.50
25342;DHT22;13298;48.792;9.154;2022-08-21T11:35:00;24.20;75.90
25342;DHT22;13298;48.792;9.154;2022-08-21T11:39:07;24.30;76.00
25342;DHT22;13298;48.792;9.154;2022-08-21T11:41:23;24.40;75.20
25342;DHT22;13298;48.792;9.154;2022-08-21T11:44:18;24.50;74.80
25342;DHT22;13298;48.792;9.154;2022-08-21T11:47:00;24.70;74.60
25342;DHT22;13298;48.792;9.154;2022-08-21T11:49:46;24.70;73.10
25342;DHT22;13298;48.792;9.154;2022-08-21T11:52:28;24.60;73.00
25342;DHT22;13298;48.792;9.154;2022-08-21T11:55:05;24.50;73.20
25342;DHT22;13298;48.792;9.154;2022-08-21T11:57:37;24.50;73.70
25342;DHT22;13298;48.792;9.154;2022-08-21T12:00:16;24.60;74.50
25342;DHT22;13298;48.792;9.154;2022-08-21T12:02:57;24.70;72.80
25342;DHT22;13298;48.792;9.154;2022-08-21T12:05:38;25.00;71.90
25342;DHT22;13298;48.792;9.154;2022-08-21T12:10:46;25.30;71.10
25342;DHT22;13298;48.792;9.154;2022-08-21T12:13:31;25.40;71.30
25342;DHT22;13298;48.792;9.154;2022-08-21T12:16:35;25.50;70.30
25342;DHT22;13298;48.792;9.154;2022-08-21T12:19:08;25.60;70.00
25342;DHT22;13298;48.792;9.154;2022-08-21T12:21:57;25.70;69.20
25342;DHT22;13298;48.792;9.154;2022-08-21T12:26:58;26.00;69.00
25342;DHT22;13298;48.792;9.154;2022-08-21T12:29:31;26.10;67.60
25342;DHT22;13298;48.792;9.154;2022-08-21T12:32:01;26.10;66.40
25342;DHT22;13298;48.792;9.154;2022-08-21T12:35:06;26.00;66.30
25342;DHT22;13298;48.792;9.154;2022-08-21T12:37:40;26.10;67.00
25342;DHT22;13298;48.792;9.154;2022-08-21T12:42:59;26.30;65.90
25342;DHT22;13298;48.792;9.154;2022-08-21T12:45:36;26.20;65.50
25342;DHT22;13298;48.792;9.154;2022-08-21T12:48:09;26.00;65.10
25342;DHT22;13298;48.792;9.154;2022-08-21T12:50:44;25.70;66.30
25342;DHT22;13298;48.792;9.154;2022-08-21T12:56:13;25.20;67.20
25342;DHT22;13298;48.792;9.154;2022-08-21T12:58:45;25.10;67.20
25342;DHT22;13298;48.792;9.154;2022-08-21T13:01:39;24.90;66.70
25342;DHT22;13298;48.792;9.154;2022-08-21T13:04:16;24.70;67.50
25342;DHT22;13298;48.792;9.154;2022-08-21T13:06:47;24.80;69.80
25342;DHT22;13298;48.792;9.154;2022-08-21T13:09:19;24.90;68.00
25342;DHT22;13298;48.792;9.154;2022-08-21T13:11:48;25.10;67.90
25342;DHT22;13298;48.792;9.154;2022-08-21T13:14:25;25.20;67.60
25342;DHT22;13298;48.792;9.154;2022-08-21T13:16:55;25.30;66.30
25342;DHT22;13298;48.792;9.154;2022-08-21T13:19:23;25.30;66.40
25342;DHT22;13298;48.792;9.154;2022-08-21T13:21:49;25.40;65.50
25342;DHT22;13298;48.792;9.154;2022-08-21T13:26:56;25.50;66.30
25342;DHT22;13298;48.792;9.154;2022-08-21T13:29:28;25.60;65.90
25342;DHT22;13298;48.792;9.154;2022-08-21T13:32:03;25.60;65.00
25342;DHT22;13298;48.792;9.154;2022-08-21T13:34:35;25.70;64.60
25342;DHT22;13298;48.792;9.154;2022-08-21T13:37:07;25.90;64.70
25342;DHT22;13298;48.792;9.154;2022-08-21T13:39:34;26.00;63.80
25342;DHT22;13298;48.792;9.154;2022-08-21T13:42:03;26.20;64.10
25342;DHT22;13298;48.792;9.154;2022-08-21T13:47:03;26.20;61.60
25342;DHT22;13298;48.792;9.154;2022-08-21T13:49:39;26.20;61.40
25342;DHT22;13298;48.792;9.154;2022-08-21T13:52:15;26.20;61.90
25342;DHT22;13298;48.792;9.154;2022-08-21T13:55:07;26.20;61.90
25342;DHT22;13298;48.792;9.154;2022-08-21T13:57:36;26.30;61.20
25342;DHT22;13298;48.792;9.154;2022-08-21T14:02:45;26.60;60.60
25342;DHT22;13298;48.792;9.154;2022-08-21T14:05:20;26.70;61.00
25342;DHT22;13298;48.792;9.154;2022-08-21T14:07:50;26.90;59.80
25342;DHT22;13298;48.792;9.154;2022-08-21T14:10:21;26.90;59.30
25342;DHT22;13298;48.792;9.154;2022-08-21T14:12:53;26.90;58.70
25342;DHT22;13298;48.792;9.154;2022-08-21T14:15:32;26.80;58.70
25342;DHT22;13298;48.792;9.154;2022-08-21T14:18:17;26.70;59.10
25342;DHT22;13298;48.792;9.154;2022-08-21T14:20:44;26.70;59.50
25342;DHT22;13298;48.792;9.154;2022-08-21T14:23:10;26.60;58.50
25342;DHT22;13298;48.792;9.154;2022-08-21T14:25:42;26.50;59.20
25342;DHT22;13298;48.792;9.154;2022-08-21T14:28:26;26.50;59.50
25342;DHT22;13298;48.792;9.154;2022-08-21T14:30:54;26.50;59.20
25342;DHT22;13298;48.792;9.154;2022-08-21T14:33:29;26.40;58.70
25342;DHT22;13298;48.792;9.154;2022-08-21T14:35:57;26.20;59.20
25342;DHT22;13298;48.792;9.154;2022-08-21T14:38:25;26.00;59.50
25342;DHT22;13298;48.792;9.154;2022-08-21T14:40:59;25.80;59.90
25342;DHT22;13298;48.792;9.154;2022-08-21T14:43:29;25.80;60.40
25342;DHT22;13298;48.792;9.154;2022-08-21T14:45:56;25.90;60.10
25342;DHT22;13298;48.792;9.154;2022-08-21T14:48:22;26.00;59.40
25342;DHT22;13298;48.792;9.154;2022-08-21T14:50:47;26.10;59.40
25342;DHT22;13298;48.792;9.154;2022-08-21T14:53:13;26.30;59.70
25342;DHT22;13298;48.792;9.154;2022-08-21T14:55:39;26.40;58.40
25342;DHT22;13298;48.792;9.154;2022-08-21T14:58:24;26.50;58.60
25342;DHT22;13298;48.792;9.154;2022-08-21T15:00:52;26.60;57.40
25342;DHT22;13298;48.792;9.154;2022-08-21T15:03:19;26.70;57.20
25342;DHT22;13298;48.792;9.154;2022-08-21T15:05:47;26.70;57.00
25342;DHT22;13298;48.792;9.154;2022-08-21T15:08:13;26.70;57.10
25342;DHT22;13298;48.792;9.154;2022-08-21T15:10:39;26.90;57.30
25342;DHT22;13298;48.792;9.154;2022-08-21T15:13:05;27.00;56.20
25342;DHT22;13298;48.792;9.154;2022-08-21T15:15:36;27.10;56.30
25342;DHT22;13298;48.792;9.154;2022-08-21T15:18:04;27.30;56.30
25342;DHT22;13298;48.792;9.154;2022-08-21T15:20:30;27.40;56.30
25342;DHT22;13298;48.792;9.154;2022-08-21T15:22:56;27.50;55.00
25342;DHT22;13298;48.792;9.154;2022-08-21T15:25:22;27.50;55.40
25342;DHT22;13298;48.792;9.154;2022-08-21T15:27:47;27.60;55.30
25342;DHT22;13298;48.792;9.154;2022-08-21T15:30:13;27.50;55.40
25342;DHT22;13298;48.792;9.154;2022-08-21T15:32:39;27.20;55.00
25342;DHT22;13298;48.792;9.154;2022-08-21T15:35:07;27.20;56.10
25342;DHT22;13298;48.792;9.154;2022-08-21T15:37:33;27.30;56.40
25342;DHT22;13298;48.792;9.154;2022-08-21T15:39:59;27.40;55.90
25342;DHT22;13298;48.792;9.154;2022-08-21T15:42:26;27.50;55.80
25342;DHT22;13298;48.792;9.154;2022-08-21T15:44:53;27.70;55.40
25342;DHT22;13298;48.792;9.154;2022-08-21T15:47:24;27.90;55.20
25342;DHT22;13298;48.792;9.154;2022-08-21T15:49:51;28.10;54.20
25342;DHT22;13298;48.792;9.154;2022-08-21T15:52:20;28.20;53.50
25342;DHT22;13298;48.792;9.154;2022-08-21T15:54:47;28.30;53.00
25342;DHT22;13298;48.792;9.154;2022-08-21T15:57:16;28.30;52.90
25342;DHT22;13298;48.792;9.154;2022-08-21T15:59:46;28.20;52.10
25342;DHT22;13298;48.792;9.154;2022-08-21T16:02:17;28.10;52.50
25342;DHT22;13298;48.792;9.154;2022-08-21T16:04:46;28.10;52.80
25342;DHT22;13298;48.792;9.154;2022-08-21T16:07:11;28.00;51.90
25342;DHT22;13298;48.792;9.154;2022-08-21T16:09:37;28.00;52.20
25342;DHT22;13298;48.792;9.154;2022-08-21T16:12:04;28.00;52.80
25342;DHT22;13298;48.792;9.154;2022-08-21T16:14:31;28.00;53.30
25342;DHT22;13298;48.792;9.154;2022-08-21T16:16:58;28.00;53.40
25342;DHT22;13298;48.792;9.154;2022-08-21T16:19:26;28.00;52.10
25342;DHT22;13298;48.792;9.154;2022-08-21T16:21:53;27.90;52.00
25342;DHT22;13298;48.792;9.154;2022-08-21T16:24:18;27.90;52.30
25342;DHT22;13298;48.792;9.154;2022-08-21T16:26:44;27.90;52.70
25342;DHT22;13298;48.792;9.154;2022-08-21T16:29:10;27.90;52.10
25342;DHT22;13298;48.792;9.154;2022-08-21T16:31:36;27.90;52.00
25342;DHT22;13298;48.792;9.154;2022-08-21T16:34:02;27.90;51.90
25342;DHT22;13298;48.792;9.154;2022-08-21T16:36:28;27.90;52.10
25342;DHT22;13298;48.792;9.154;2022-08-21T16:38:55;28.00;51.90
25342;DHT22;13298;48.792;9.154;2022-08-21T16:41:24;28.00;52.00
25342;DHT22;13298;48.792;9.154;2022-08-21T16:43:52;28.00;52.10
25342;DHT22;13298;48.792;9.154;2022-08-21T16:46:19;28.10;52.10